sensor_id;sensor_type;location;lat;lon;timestamp;temperature;humidity
72762;SHT30;60886;55.034;73.150;2023-04-21T00:00:09;-1.11;63.84
72762;SHT30;60886;55.034;73.150;2023-04-21T00:03:16;-1.16;64.16
72762;SHT30;60886;55.034;73.150;2023-04-21T00:06:22;-1.18;64.20
72762;SHT30;60886;55.034;73.150;2023-04-21T00:09:24;-1.16;64.19
72762;SHT30;60886;55.034;73.150;2023-04-21T00:12:25;-1.13;64.02
72762;SHT30;60886;55.034;73.150;2023-04-21T00:15:26;-1.12;64.38
72762;SHT30;60886;55.034;73.150;2023-04-21T00:18:28;-1.09;64.13
72762;SHT30;60886;55.034;73.150;2023-04-21T00:21:29;-1.13;64.21
72762;SHT30;60886;55.034;73.150;2023-04-21T00:24:31;-1.18;64.67
72762;SHT30;60886;55.034;73.150;2023-04-21T00:27:42;-1.09;64.39
72762;SHT30;60886;55.034;73.150;2023-04-21T00:30:45;-1.09;64.36
72762;SHT30;60886;55.034;73.150;2023-04-21T00:33:46;-1.07;64.34
72762;SHT30;60886;55.034;73.150;2023-04-21T00:36:48;-1.08;64.32
72762;SHT30;60886;55.034;73.150;2023-04-21T00:39:55;-1.07;64.57
72762;SHT30;60886;55.034;73.150;2023-04-21T00:42:57;-1.04;64.22
72762;SHT30;60886;55.034;73.150;2023-04-21T00:46:09;-1.04;64.24
72762;SHT30;60886;55.034;73.150;2023-04-21T00:49:23;-1.00;64.41
72762;SHT30;60886;55.034;73.150;2023-04-21T00:52:28;-1.00;64.57
72762;SHT30;60886;55.034;73.150;2023-04-21T00:55:39;-0.97;64.63
72762;SHT30;60886;55.034;73.150;2023-04-21T00:58:53;-0.97;65.27
72762;SHT30;60886;55.034;73.150;2023-04-21T01:01:55;-1.00;65.29
72762;SHT30;60886;55.034;73.150;2023-04-21T01:04:59;-0.98;65.35
72762;SHT30;60886;55.034;73.150;2023-04-21T01:08:01;-0.90;65.39
72762;SHT30;60886;55.034;73.150;2023-04-21T01:11:13;-0.80;65.52
72762;SHT30;60886;55.034;73.150;2023-04-21T01:14:15;-0.74;65.51
72762;SHT30;60886;55.034;73.150;2023-04-21T01:17:18;-0.67;65.75
72762;SHT30;60886;55.034;73.150;2023-04-21T01:20:22;-0.61;65.67
72762;SHT30;60886;55.034;73.150;2023-04-21T01:23:24;-0.46;65.71
72762;SHT30;60886;55.034;73.150;2023-04-21T01:26:25;-0.36;66.08
72762;SHT30;60886;55.034;73.150;2023-04-21T01:29:38;-0.16;65.94
72762;SHT30;60886;55.034;73.150;2023-04-21T01:32:44;-0.02;65.96
72762;SHT30;60886;55.034;73.150;2023-04-21T01:35:46;0.14;65.95
72762;SHT30;60886;55.034;73.150;2023-04-21T01:38:52;0.28;66.54
72762;SHT30;60886;55.034;73.150;2023-04-21T01:41:55;0.45;66.07
72762;SHT30;60886;55.034;73.150;2023-04-21T01:44:58;0.53;66.39
72762;SHT30;60886;55.034;73.150;2023-04-21T01:48:00;0.76;66.34
72762;SHT30;60886;55.034;73.150;2023-04-21T01:51:01;1.00;66.57
72762;SHT30;60886;55.034;73.150;2023-04-21T01:54:13;1.23;66.46
72762;SHT30;60886;55.034;73.150;2023-04-21T01:57:21;1.48;66.64
72762;SHT30;60886;55.034;73.150;2023-04-21T02:00:35;1.72;66.84
72762;SHT30;60886;55.034;73.150;2023-04-21T02:03:39;1.99;66.79
72762;SHT30;60886;55.034;73.150;2023-04-21T02:06:47;2.33;66.38
72762;SHT30;60886;55.034;73.150;2023-04-21T02:09:55;2.68;65.52
72762;SHT30;60886;55.034;73.150;2023-04-21T02:13:01;2.94;65.26
72762;SHT30;60886;55.034;73.150;2023-04-21T02:16:04;3.29;64.05
72762;SHT30;60886;55.034;73.150;2023-04-21T02:19:16;3.51;62.81
72762;SHT30;60886;55.034;73.150;2023-04-21T02:22:18;3.49;62.47
72762;SHT30;60886;55.034;73.150;2023-04-21T02:25:19;3.55;62.29
72762;SHT30;60886;55.034;73.150;2023-04-21T02:28:21;3.75;62.09
72762;SHT30;60886;55.034;73.150;2023-04-21T02:31:23;4.00;62.30
72762;SHT30;60886;55.034;73.150;2023-04-21T02:34:25;4.24;60.76
72762;SHT30;60886;55.034;73.150;2023-04-21T02:37:26;4.48;61.38
72762;SHT30;60886;55.034;73.150;2023-04-21T02:40:28;4.82;60.07
72762;SHT30;60886;55.034;73.150;2023-04-21T02:43:29;5.04;59.89
72762;SHT30;60886;55.034;73.150;2023-04-21T02:46:32;5.42;58.76
72762;SHT30;60886;55.034;73.150;2023-04-21T02:49:42;5.39;57.92
72762;SHT30;60886;55.034;73.150;2023-04-21T02:52:44;5.64;58.30
72762;SHT30;60886;55.034;73.150;2023-04-21T02:55:45;5.87;57.10
72762;SHT30;60886;55.034;73.150;2023-04-21T02:58:47;5.84;57.24
72762;SHT30;60886;55.034;73.150;2023-04-21T03:01:48;6.25;57.18
72762;SHT30;60886;55.034;73.150;2023-04-21T03:04:55;6.28;56.31
72762;SHT30;60886;55.034;73.150;2023-04-21T03:07:57;6.31;56.67
72762;SHT30;60886;55.034;73.150;2023-04-21T03:10:59;6.63;56.28
72762;SHT30;60886;55.034;73.150;2023-04-21T03:14:01;6.97;55.96
72762;SHT30;60886;55.034;73.150;2023-04-21T03:17:02;7.10;54.14
72762;SHT30;60886;55.034;73.150;2023-04-21T03:20:06;6.79;55.34
72762;SHT30;60886;55.034;73.150;2023-04-21T03:23:09;7.01;55.46
72762;SHT30;60886;55.034;73.150;2023-04-21T03:26:15;7.20;54.06
72762;SHT30;60886;55.034;73.150;2023-04-21T03:29:17;7.13;53.92
72762;SHT30;60886;55.034;73.150;2023-04-21T03:32:18;7.30;53.42
72762;SHT30;60886;55.034;73.150;2023-04-21T03:35:25;7.16;53.46
72762;SHT30;60886;55.034;73.150;2023-04-21T03:38:32;7.30;53.48
72762;SHT30;60886;55.034;73.150;2023-04-21T03:41:36;7.32;52.76
72762;SHT30;60886;55.034;73.150;2023-04-21T03:44:55;7.28;52.29
72762;SHT30;60886;55.034;73.150;2023-04-21T03:47:56;7.40;52.03
72762;SHT30;60886;55.034;73.150;2023-04-21T03:51:03;7.61;51.54
72762;SHT30;60886;55.034;73.150;2023-04-21T03:54:04;7.96;51.51
72762;SHT30;60886;55.034;73.150;2023-04-21T03:57:06;8.22;50.40
72762;SHT30;60886;55.034;73.150;2023-04-21T04:00:08;8.42;49.19
72762;SHT30;60886;55.034;73.150;2023-04-21T04:03:14;8.49;48.61
72762;SHT30;60886;55.034;73.150;2023-04-21T04:06:15;8.49;48.56
72762;SHT30;60886;55.034;73.150;2023-04-21T04:09:17;8.74;48.69
72762;SHT30;60886;55.034;73.150;2023-04-21T04:12:18;8.66;49.36
72762;SHT30;60886;55.034;73.150;2023-04-21T04:15:20;8.53;48.65
72762;SHT30;60886;55.034;73.150;2023-04-21T04:18:21;8.77;49.87
72762;SHT30;60886;55.034;73.150;2023-04-21T04:21:22;9.01;47.71
72762;SHT30;60886;55.034;73.150;2023-04-21T04:24:34;9.28;47.21
72762;SHT30;60886;55.034;73.150;2023-04-21T04:27:36;9.22;46.53
72762;SHT30;60886;55.034;73.150;2023-04-21T04:30:37;9.19;47.80
72762;SHT30;60886;55.034;73.150;2023-04-21T04:33:43;9.43;46.32
72762;SHT30;60886;55.034;73.150;2023-04-21T04:36:45;9.65;44.93
72762;SHT30;60886;55.034;73.150;2023-04-21T04:39:55;9.65;46.01
72762;SHT30;60886;55.034;73.150;2023-04-21T04:43:01;9.41;45.31
72762;SHT30;60886;55.034;73.150;2023-04-21T04:46:14;9.56;44.79
72762;SHT30;60886;55.034;73.150;2023-04-21T04:49:15;9.69;44.42
72762;SHT30;60886;55.034;73.150;2023-04-21T04:52:17;9.75;44.35
72762;SHT30;60886;55.034;73.150;2023-04-21T04:55:18;9.82;44.95
72762;SHT30;60886;55.034;73.150;2023-04-21T04:58:21;10.07;45.31
72762;SHT30;60886;55.034;73.150;2023-04-21T05:01:22;10.14;42.35
72762;SHT30;60886;55.034;73.150;2023-04-21T05:04:40;9.94;42.44
72762;SHT30;60886;55.034;73.150;2023-04-21T05:07:41;9.85;43.20
72762;SHT30;60886;55.034;73.150;2023-04-21T05:10:42;9.83;43.31
72762;SHT30;60886;55.034;73.150;2023-04-21T05:13:44;9.83;43.15
72762;SHT30;60886;55.034;73.150;2023-04-21T05:16:45;9.75;41.73
72762;SHT30;60886;55.034;73.150;2023-04-21T05:19:55;9.66;42.25
72762;SHT30;60886;55.034;73.150;2023-04-21T05:22:56;9.62;42.79
72762;SHT30;60886;55.034;73.150;2023-04-21T05:25:58;9.66;41.77
72762;SHT30;60886;55.034;73.150;2023-04-21T05:28:59;9.76;42.69
72762;SHT30;60886;55.034;73.150;2023-04-21T05:32:01;9.72;40.90
72762;SHT30;60886;55.034;73.150;2023-04-21T05:35:02;9.52;41.69
72762;SHT30;60886;55.034;73.150;2023-04-21T05:38:06;9.58;42.20
72762;SHT30;60886;55.034;73.150;2023-04-21T05:41:07;9.46;41.68
72762;SHT30;60886;55.034;73.150;2023-04-21T05:44:11;9.55;41.56
72762;SHT30;60886;55.034;73.150;2023-04-21T05:47:12;9.66;41.83
72762;SHT30;60886;55.034;73.150;2023-04-21T05:50:13;9.76;41.19
72762;SHT30;60886;55.034;73.150;2023-04-21T05:53:16;9.82;42.35
72762;SHT30;60886;55.034;73.150;2023-04-21T05:56:18;9.92;40.48
72762;SHT30;60886;55.034;73.150;2023-04-21T05:59:19;9.89;39.80
72762;SHT30;60886;55.034;73.150;2023-04-21T06:02:21;9.69;40.45
72762;SHT30;60886;55.034;73.150;2023-04-21T06:05:22;9.82;40.11
72762;SHT30;60886;55.034;73.150;2023-04-21T06:08:24;9.82;39.84
72762;SHT30;60886;55.034;73.150;2023-04-21T06:11:25;9.73;39.61
72762;SHT30;60886;55.034;73.150;2023-04-21T06:14:27;9.59;40.80
72762;SHT30;60886;55.034;73.150;2023-04-21T06:17:39;9.68;41.62
72762;SHT30;60886;55.034;73.150;2023-04-21T06:20:40;9.75;40.86
72762;SHT30;60886;55.034;73.150;2023-04-21T06:23:42;9.78;40.23
72762;SHT30;60886;55.034;73.150;2023-04-21T06:26:43;9.87;40.26
72762;SHT30;60886;55.034;73.150;2023-04-21T06:29:45;9.82;40.78
72762;SHT30;60886;55.034;73.150;2023-04-21T06:32:46;9.73;40.71
72762;SHT30;60886;55.034;73.150;2023-04-21T06:35:48;9.63;41.60
72762;SHT30;60886;55.034;73.150;2023-04-21T06:38:50;9.69;41.91
72762;SHT30;60886;55.034;73.150;2023-04-21T06:41:51;9.83;41.65
72762;SHT30;60886;55.034;73.150;2023-04-21T06:44:55;9.78;40.85
72762;SHT30;60886;55.034;73.150;2023-04-21T06:47:56;9.73;41.57
72762;SHT30;60886;55.034;73.150;2023-04-21T06:50:58;9.76;40.53
72762;SHT30;60886;55.034;73.150;2023-04-21T06:54:00;9.79;40.77
72762;SHT30;60886;55.034;73.150;2023-04-21T06:57:07;9.83;40.01
72762;SHT30;60886;55.034;73.150;2023-04-21T07:00:09;9.71;40.73
72762;SHT30;60886;55.034;73.150;2023-04-21T07:03:10;9.82;40.52
72762;SHT30;60886;55.034;73.150;2023-04-21T07:06:12;9.93;40.09
72762;SHT30;60886;55.034;73.150;2023-04-21T07:09:14;9.92;40.13
72762;SHT30;60886;55.034;73.150;2023-04-21T07:12:15;10.04;39.19
72762;SHT30;60886;55.034;73.150;2023-04-21T07:15:17;10.12;37.80
72762;SHT30;60886;55.034;73.150;2023-04-21T07:18:29;10.06;38.05
72762;SHT30;60886;55.034;73.150;2023-04-21T07:21:30;9.92;36.64
72762;SHT30;60886;55.034;73.150;2023-04-21T07:24:32;9.93;36.57
72762;SHT30;60886;55.034;73.150;2023-04-21T07:27:35;9.97;36.60
72762;SHT30;60886;55.034;73.150;2023-04-21T07:30:37;10.10;35.82
72762;SHT30;60886;55.034;73.150;2023-04-21T07:33:38;10.21;36.07
72762;SHT30;60886;55.034;73.150;2023-04-21T07:36:40;10.18;34.80
72762;SHT30;60886;55.034;73.150;2023-04-21T07:39:41;10.09;33.76
72762;SHT30;60886;55.034;73.150;2023-04-21T07:42:43;10.16;33.39
72762;SHT30;60886;55.034;73.150;2023-04-21T07:45:44;10.10;32.08
72762;SHT30;60886;55.034;73.150;2023-04-21T07:48:46;10.09;31.36
72762;SHT30;60886;55.034;73.150;2023-04-21T07:51:47;10.10;31.32
72762;SHT30;60886;55.034;73.150;2023-04-21T07:54:55;9.99;30.62
72762;SHT30;60886;55.034;73.150;2023-04-21T07:57:56;9.89;31.53
72762;SHT30;60886;55.034;73.150;2023-04-21T08:00:58;9.96;30.27
72762;SHT30;60886;55.034;73.150;2023-04-21T08:03:59;9.93;31.17
72762;SHT30;60886;55.034;73.150;2023-04-21T08:07:06;9.96;30.33
72762;SHT30;60886;55.034;73.150;2023-04-21T08:10:09;9.90;29.99
72762;SHT30;60886;55.034;73.150;2023-04-21T08:13:11;9.93;30.62
72762;SHT30;60886;55.034;73.150;2023-04-21T08:16:12;9.92;30.80
72762;SHT30;60886;55.034;73.150;2023-04-21T08:19:14;9.87;29.71
72762;SHT30;60886;55.034;73.150;2023-04-21T08:22:15;9.93;29.99
72762;SHT30;60886;55.034;73.150;2023-04-21T08:25:17;9.92;28.82
72762;SHT30;60886;55.034;73.150;2023-04-21T08:28:19;9.97;29.53
72762;SHT30;60886;55.034;73.150;2023-04-21T08:31:20;10.13;29.11
72762;SHT30;60886;55.034;73.150;2023-04-21T08:34:33;10.04;28.51
72762;SHT30;60886;55.034;73.150;2023-04-21T08:37:38;10.00;28.63
72762;SHT30;60886;55.034;73.150;2023-04-21T08:40:39;9.99;27.80
72762;SHT30;60886;55.034;73.150;2023-04-21T08:43:42;9.92;28.99
72762;SHT30;60886;55.034;73.150;2023-04-21T08:46:48;10.03;28.52
72762;SHT30;60886;55.034;73.150;2023-04-21T08:49:55;10.03;27.18
72762;SHT30;60886;55.034;73.150;2023-04-21T08:52:57;10.06;27.64
72762;SHT30;60886;55.034;73.150;2023-04-21T08:55:59;10.07;26.37
72762;SHT30;60886;55.034;73.150;2023-04-21T08:59:10;9.97;26.07
72762;SHT30;60886;55.034;73.150;2023-04-21T09:02:17;10.06;26.19
72762;SHT30;60886;55.034;73.150;2023-04-21T09:05:23;10.07;25.01
72762;SHT30;60886;55.034;73.150;2023-04-21T09:08:28;9.93;25.59
72762;SHT30;60886;55.034;73.150;2023-04-21T09:11:32;10.00;24.19
72762;SHT30;60886;55.034;73.150;2023-04-21T09:14:34;10.00;25.15
72762;SHT30;60886;55.034;73.150;2023-04-21T09:17:36;9.93;23.91
72762;SHT30;60886;55.034;73.150;2023-04-21T09:20:39;9.92;23.90
72762;SHT30;60886;55.034;73.150;2023-04-21T09:23:45;9.96;23.63
72762;SHT30;60886;55.034;73.150;2023-04-21T09:26:53;10.09;23.70
72762;SHT30;60886;55.034;73.150;2023-04-21T09:30:07;10.16;24.64
72762;SHT30;60886;55.034;73.150;2023-04-21T09:33:17;10.14;22.21
72762;SHT30;60886;55.034;73.150;2023-04-21T09:36:21;10.09;22.16
72762;SHT30;60886;55.034;73.150;2023-04-21T09:39:22;10.02;22.45
72762;SHT30;60886;55.034;73.150;2023-04-21T09:42:28;10.09;22.38
72762;SHT30;60886;55.034;73.150;2023-04-21T09:45:31;10.10;21.72
72762;SHT30;60886;55.034;73.150;2023-04-21T09:48:34;10.09;21.59
72762;SHT30;60886;55.034;73.150;2023-04-21T09:51:38;10.00;20.92
72762;SHT30;60886;55.034;73.150;2023-04-21T09:54:48;10.07;22.15
72762;SHT30;60886;55.034;73.150;2023-04-21T09:57:50;10.06;21.66
72762;SHT30;60886;55.034;73.150;2023-04-21T10:00:54;10.00;21.43
72762;SHT30;60886;55.034;73.150;2023-04-21T10:03:57;10.03;21.47
72762;SHT30;60886;55.034;73.150;2023-04-21T10:06:59;9.93;22.91
72762;SHT30;60886;55.034;73.150;2023-04-21T10:10:02;10.03;21.23
72762;SHT30;60886;55.034;73.150;2023-04-21T10:13:06;10.03;21.86
72762;SHT30;60886;55.034;73.150;2023-04-21T10:16:23;10.06;21.95
72762;SHT30;60886;55.034;73.150;2023-04-21T10:19:26;10.16;22.12
72762;SHT30;60886;55.034;73.150;2023-04-21T10:22:29;10.12;21.55
72762;SHT30;60886;55.034;73.150;2023-04-21T10:25:31;10.18;22.17
72762;SHT30;60886;55.034;73.150;2023-04-21T10:28:44;10.20;21.58
72762;SHT30;60886;55.034;73.150;2023-04-21T10:31:52;10.17;21.78
72762;SHT30;60886;55.034;73.150;2023-04-21T10:34:55;10.12;21.50
72762;SHT30;60886;55.034;73.150;2023-04-21T10:37:57;10.13;22.32
72762;SHT30;60886;55.034;73.150;2023-04-21T10:41:31;10.12;21.88
72762;SHT30;60886;55.034;73.150;2023-04-21T10:44:42;10.09;21.66
72762;SHT30;60886;55.034;73.150;2023-04-21T10:47:47;10.07;21.69
72762;SHT30;60886;55.034;73.150;2023-04-21T10:50:50;10.00;21.63
72762;SHT30;60886;55.034;73.150;2023-04-21T10:53:52;9.99;21.70
72762;SHT30;60886;55.034;73.150;2023-04-21T10:56:55;9.99;22.09
72762;SHT30;60886;55.034;73.150;2023-04-21T10:59:56;10.03;21.48
72762;SHT30;60886;55.034;73.150;2023-04-21T11:03:00;9.92;21.84
72762;SHT30;60886;55.034;73.150;2023-04-21T11:06:16;9.96;22.20
72762;SHT30;60886;55.034;73.150;2023-04-21T11:09:29;9.94;21.85
72762;SHT30;60886;55.034;73.150;2023-04-21T11:12:38;9.92;21.32
72762;SHT30;60886;55.034;73.150;2023-04-21T11:15:40;9.94;21.48
72762;SHT30;60886;55.034;73.150;2023-04-21T11:18:43;9.90;21.20
72762;SHT30;60886;55.034;73.150;2023-04-21T11:21:47;9.96;22.10
72762;SHT30;60886;55.034;73.150;2023-04-21T11:24:56;10.04;21.64
72762;SHT30;60886;55.034;73.150;2023-04-21T11:27:58;10.00;21.31
72762;SHT30;60886;55.034;73.150;2023-04-21T11:31:08;9.96;21.24
72762;SHT30;60886;55.034;73.150;2023-04-21T11:34:10;9.92;21.33
72762;SHT30;60886;55.034;73.150;2023-04-21T11:37:20;9.87;21.52
72762;SHT30;60886;55.034;73.150;2023-04-21T11:40:22;9.86;21.78
72762;SHT30;60886;55.034;73.150;2023-04-21T11:43:23;9.87;21.89
72762;SHT30;60886;55.034;73.150;2023-04-21T11:46:27;9.90;21.49
72762;SHT30;60886;55.034;73.150;2023-04-21T11:50:03;9.87;21.29
72762;SHT30;60886;55.034;73.150;2023-04-21T11:53:07;9.87;22.17
72762;SHT30;60886;55.034;73.150;2023-04-21T11:56:17;9.89;22.17
72762;SHT30;60886;55.034;73.150;2023-04-21T11:59:21;9.83;22.91
72762;SHT30;60886;55.034;73.150;2023-04-21T12:02:32;9.90;22.81
72762;SHT30;60886;55.034;73.150;2023-04-21T12:05:34;9.89;23.15
72762;SHT30;60886;55.034;73.150;2023-04-21T12:08:41;9.90;22.86
72762;SHT30;60886;55.034;73.150;2023-04-21T12:11:46;9.87;23.09
72762;SHT30;60886;55.034;73.150;2023-04-21T12:14:55;9.85;23.84
72762;SHT30;60886;55.034;73.150;2023-04-21T12:17:56;9.85;23.49
72762;SHT30;60886;55.034;73.150;2023-04-21T12:21:08;9.83;23.93
72762;SHT30;60886;55.034;73.150;2023-04-21T12:24:10;9.83;23.81
72762;SHT30;60886;55.034;73.150;2023-04-21T12:27:12;9.82;24.01
72762;SHT30;60886;55.034;73.150;2023-04-21T12:30:14;9.83;24.46
72762;SHT30;60886;55.034;73.150;2023-04-21T12:33:16;9.83;23.94
72762;SHT30;60886;55.034;73.150;2023-04-21T12:36:18;9.79;24.77
72762;SHT30;60886;55.034;73.150;2023-04-21T12:39:19;9.73;24.31
72762;SHT30;60886;55.034;73.150;2023-04-21T12:42:22;9.71;24.76
72762;SHT30;60886;55.034;73.150;2023-04-21T12:45:23;9.71;24.80
72762;SHT30;60886;55.034;73.150;2023-04-21T12:48:25;9.68;25.03
72762;SHT30;60886;55.034;73.150;2023-04-21T12:51:26;9.63;25.21
72762;SHT30;60886;55.034;73.150;2023-04-21T12:54:28;9.65;25.92
72762;SHT30;60886;55.034;73.150;2023-04-21T12:57:30;9.62;26.17
72762;SHT30;60886;55.034;73.150;2023-04-21T13:00:32;9.58;25.96
72762;SHT30;60886;55.034;73.150;2023-04-21T13:03:36;9.55;26.40
72762;SHT30;60886;55.034;73.150;2023-04-21T13:06:38;9.49;26.13
72762;SHT30;60886;55.034;73.150;2023-04-21T13:09:54;9.48;26.63
72762;SHT30;60886;55.034;73.150;2023-04-21T13:12:56;9.51;26.32
72762;SHT30;60886;55.034;73.150;2023-04-21T13:15:57;9.43;26.86
72762;SHT30;60886;55.034;73.150;2023-04-21T13:18:59;9.36;27.34
72762;SHT30;60886;55.034;73.150;2023-04-21T13:22:00;9.29;27.62
72762;SHT30;60886;55.034;73.150;2023-04-21T13:25:02;9.18;27.50
72762;SHT30;60886;55.034;73.150;2023-04-21T13:28:11;9.10;27.53
72762;SHT30;60886;55.034;73.150;2023-04-21T13:31:14;9.05;27.85
72762;SHT30;60886;55.034;73.150;2023-04-21T13:34:16;8.96;28.16
72762;SHT30;60886;55.034;73.150;2023-04-21T13:37:22;8.88;28.30
72762;SHT30;60886;55.034;73.150;2023-04-21T13:40:24;8.80;27.94
72762;SHT30;60886;55.034;73.150;2023-04-21T13:43:25;8.76;27.92
72762;SHT30;60886;55.034;73.150;2023-04-21T13:46:27;8.68;28.14
72762;SHT30;60886;55.034;73.150;2023-04-21T13:49:28;8.60;28.56
72762;SHT30;60886;55.034;73.150;2023-04-21T13:52:30;8.47;27.85
72762;SHT30;60886;55.034;73.150;2023-04-21T13:55:32;8.47;28.29
72762;SHT30;60886;55.034;73.150;2023-04-21T13:58:33;8.40;28.31
72762;SHT30;60886;55.034;73.150;2023-04-21T14:01:36;8.36;28.26
72762;SHT30;60886;55.034;73.150;2023-04-21T14:04:38;8.26;28.44
72762;SHT30;60886;55.034;73.150;2023-04-21T14:07:41;8.21;28.46
72762;SHT30;60886;55.034;73.150;2023-04-21T14:10:43;8.19;28.83
72762;SHT30;60886;55.034;73.150;2023-04-21T14:13:44;8.12;29.02
72762;SHT30;60886;55.034;73.150;2023-04-21T14:16:46;8.06;29.25
72762;SHT30;60886;55.034;73.150;2023-04-21T14:19:54;8.02;29.55
72762;SHT30;60886;55.034;73.150;2023-04-21T14:22:56;7.95;29.47
72762;SHT30;60886;55.034;73.150;2023-04-21T14:25:57;7.89;30.00
72762;SHT30;60886;55.034;73.150;2023-04-21T14:28:59;7.86;30.25
72762;SHT30;60886;55.034;73.150;2023-04-21T14:32:02;7.85;30.31
72762;SHT30;60886;55.034;73.150;2023-04-21T14:35:04;7.89;30.63
72762;SHT30;60886;55.034;73.150;2023-04-21T14:38:16;7.88;30.88
72762;SHT30;60886;55.034;73.150;2023-04-21T14:41:18;7.86;31.09
72762;SHT30;60886;55.034;73.150;2023-04-21T14:44:19;7.85;30.80
72762;SHT30;60886;55.034;73.150;2023-04-21T14:47:25;7.82;31.30
72762;SHT30;60886;55.034;73.150;2023-04-21T14:50:27;7.74;31.48
72762;SHT30;60886;55.034;73.150;2023-04-21T14:53:29;7.68;31.90
72762;SHT30;60886;55.034;73.150;2023-04-21T14:56:35;7.58;31.73
72762;SHT30;60886;55.034;73.150;2023-04-21T14:59:37;7.52;31.90
72762;SHT30;60886;55.034;73.150;2023-04-21T15:02:39;7.40;32.12
72762;SHT30;60886;55.034;73.150;2023-04-21T15:05:41;7.34;32.26
72762;SHT30;60886;55.034;73.150;2023-04-21T15:08:42;7.34;31.80
72762;SHT30;60886;55.034;73.150;2023-04-21T15:11:44;7.28;32.16
72762;SHT30;60886;55.034;73.150;2023-04-21T15:14:54;7.30;32.09
72762;SHT30;60886;55.034;73.150;2023-04-21T15:17:56;7.32;32.27
72762;SHT30;60886;55.034;73.150;2023-04-21T15:20:57;7.27;32.20
72762;SHT30;60886;55.034;73.150;2023-04-21T15:23:59;7.23;32.42
72762;SHT30;60886;55.034;73.150;2023-04-21T15:27:01;7.24;32.59
72762;SHT30;60886;55.034;73.150;2023-04-21T15:30:03;7.23;32.77
72762;SHT30;60886;55.034;73.150;2023-04-21T15:33:17;7.24;33.44
72762;SHT30;60886;55.034;73.150;2023-04-21T15:36:19;7.21;33.66
72762;SHT30;60886;55.034;73.150;2023-04-21T15:39:20;7.17;34.09
72762;SHT30;60886;55.034;73.150;2023-04-21T15:42:22;7.16;34.32
72762;SHT30;60886;55.034;73.150;2023-04-21T15:45:34;7.13;34.77
72762;SHT30;60886;55.034;73.150;2023-04-21T15:48:35;7.11;35.00
72762;SHT30;60886;55.034;73.150;2023-04-21T15:51:37;7.01;35.67
72762;SHT30;60886;55.034;73.150;2023-04-21T15:54:40;6.92;36.09
72762;SHT30;60886;55.034;73.150;2023-04-21T15:57:42;6.87;36.45
72762;SHT30;60886;55.034;73.150;2023-04-21T16:00:43;6.79;37.11
72762;SHT30;60886;55.034;73.150;2023-04-21T16:03:55;6.68;37.27
72762;SHT30;60886;55.034;73.150;2023-04-21T16:06:57;6.57;37.85
72762;SHT30;60886;55.034;73.150;2023-04-21T16:09:58;6.45;38.28
72762;SHT30;60886;55.034;73.150;2023-04-21T16:13:00;6.36;38.39
72762;SHT30;60886;55.034;73.150;2023-04-21T16:16:02;6.28;38.98
72762;SHT30;60886;55.034;73.150;2023-04-21T16:19:10;6.17;39.26
72762;SHT30;60886;55.034;73.150;2023-04-21T16:22:12;6.08;39.80
72762;SHT30;60886;55.034;73.150;2023-04-21T16:25:14;6.00;39.76
72762;SHT30;60886;55.034;73.150;2023-04-21T16:28:18;5.94;39.95
72762;SHT30;60886;55.034;73.150;2023-04-21T16:31:20;5.84;40.40
72762;SHT30;60886;55.034;73.150;2023-04-21T16:34:21;5.81;40.60
72762;SHT30;60886;55.034;73.150;2023-04-21T16:37:23;5.80;40.62
72762;SHT30;60886;55.034;73.150;2023-04-21T16:40:24;5.67;40.84
72762;SHT30;60886;55.034;73.150;2023-04-21T16:43:26;5.63;41.05
72762;SHT30;60886;55.034;73.150;2023-04-21T16:46:27;5.57;41.08
72762;SHT30;60886;55.034;73.150;2023-04-21T16:49:29;5.56;40.95
72762;SHT30;60886;55.034;73.150;2023-04-21T16:52:35;5.50;40.94
72762;SHT30;60886;55.034;73.150;2023-04-21T16:55:42;5.44;41.15
72762;SHT30;60886;55.034;73.150;2023-04-21T16:58:43;5.39;41.17
72762;SHT30;60886;55.034;73.150;2023-04-21T17:01:55;5.35;41.25
72762;SHT30;60886;55.034;73.150;2023-04-21T17:04:56;5.26;41.27
72762;SHT30;60886;55.034;73.150;2023-04-21T17:08:08;5.25;41.65
72762;SHT30;60886;55.034;73.150;2023-04-21T17:11:09;5.19;41.52
72762;SHT30;60886;55.034;73.150;2023-04-21T17:14:11;5.15;41.65
72762;SHT30;60886;55.034;73.150;2023-04-21T17:17:15;5.11;41.71
72762;SHT30;60886;55.034;73.150;2023-04-21T17:20:27;5.05;41.88
72762;SHT30;60886;55.034;73.150;2023-04-21T17:23:29;5.06;41.85
72762;SHT30;60886;55.034;73.150;2023-04-21T17:26:30;5.11;41.69
72762;SHT30;60886;55.034;73.150;2023-04-21T17:29:32;5.12;41.64
72762;SHT30;60886;55.034;73.150;2023-04-21T17:32:34;5.13;41.81
72762;SHT30;60886;55.034;73.150;2023-04-21T17:35:36;5.11;41.66
72762;SHT30;60886;55.034;73.150;2023-04-21T17:38:48;5.16;42.08
72762;SHT30;60886;55.034;73.150;2023-04-21T17:41:49;5.16;42.06
72762;SHT30;60886;55.034;73.150;2023-04-21T17:44:56;5.15;42.30
72762;SHT30;60886;55.034;73.150;2023-04-21T17:47:57;5.11;42.32
72762;SHT30;60886;55.034;73.150;2023-04-21T17:50:59;5.15;42.59
72762;SHT30;60886;55.034;73.150;2023-04-21T17:54:00;5.16;42.13
72762;SHT30;60886;55.034;73.150;2023-04-21T17:57:03;5.16;43.02
72762;SHT30;60886;55.034;73.150;2023-04-21T18:00:05;5.11;42.89
72762;SHT30;60886;55.034;73.150;2023-04-21T18:03:08;5.18;43.14
72762;SHT30;60886;55.034;73.150;2023-04-21T18:06:10;5.16;43.00
72762;SHT30;60886;55.034;73.150;2023-04-21T18:09:11;5.12;43.01
72762;SHT30;60886;55.034;73.150;2023-04-21T18:12:13;5.12;43.54
72762;SHT30;60886;55.034;73.150;2023-04-21T18:15:25;5.04;43.54
72762;SHT30;60886;55.034;73.150;2023-04-21T18:18:27;5.08;43.98
72762;SHT30;60886;55.034;73.150;2023-04-21T18:21:28;5.00;43.85
72762;SHT30;60886;55.034;73.150;2023-04-21T18:24:30;5.04;43.87
72762;SHT30;60886;55.034;73.150;2023-04-21T18:27:31;5.02;44.39
72762;SHT30;60886;55.034;73.150;2023-04-21T18:30:33;5.00;44.43
72762;SHT30;60886;55.034;73.150;2023-04-21T18:33:34;4.96;44.66
72762;SHT30;60886;55.034;73.150;2023-04-21T18:36:36;4.96;44.47
72762;SHT30;60886;55.034;73.150;2023-04-21T18:39:37;4.92;44.69
72762;SHT30;60886;55.034;73.150;2023-04-21T18:42:39;4.93;44.61
72762;SHT30;60886;55.034;73.150;2023-04-21T18:45:41;4.91;45.26
72762;SHT30;60886;55.034;73.150;2023-04-21T18:48:42;4.88;45.42
72762;SHT30;60886;55.034;73.150;2023-04-21T18:51:44;4.86;45.92
72762;SHT30;60886;55.034;73.150;2023-04-21T18:54:54;4.79;46.00
72762;SHT30;60886;55.034;73.150;2023-04-21T18:57:56;4.79;45.90
72762;SHT30;60886;55.034;73.150;2023-04-21T19:00:57;4.76;46.10
72762;SHT30;60886;55.034;73.150;2023-04-21T19:03:59;4.69;46.73
72762;SHT30;60886;55.034;73.150;2023-04-21T19:07:01;4.61;46.90
72762;SHT30;60886;55.034;73.150;2023-04-21T19:10:06;4.60;47.25
72762;SHT30;60886;55.034;73.150;2023-04-21T19:13:18;4.57;47.61
72762;SHT30;60886;55.034;73.150;2023-04-21T19:16:19;4.50;47.92